createdAt,value
2017-11-07T00:02:02.820Z,3.35
2017-11-07T00:04:30.571Z,3.10
2017-11-07T00:06:58.232Z,3.30
2017-11-07T00:09:26.981Z,3.30
2017-11-07T00:11:54.766Z,3.20
2017-11-07T00:14:23.193Z,3.10
2017-11-07T00:16:50.943Z,3.00
2017-11-07T00:21:52.533Z,3.00
2017-11-07T00:24:20.959Z,3.00
2017-11-07T00:26:48.734Z,3.30
2017-11-07T00:29:16.406Z,3.20
2017-11-07T00:31:44.161Z,3.40
2017-11-07T00:36:57.237Z,3.45
2017-11-07T00:42:03.360Z,3.17
2017-11-07T00:47:18.456Z,3.40
2017-11-07T00:49:47.475Z,3.40
2017-11-07T00:52:20.634Z,2.87
2017-11-07T00:57:30.880Z,3.55
2017-11-07T01:00:00.722Z,3.10
2017-11-07T01:02:29.978Z,3.15
2017-11-07T01:04:57.844Z,3.22
2017-11-07T01:07:25.651Z,3.15
2017-11-07T01:09:53.386Z,2.85
2017-11-07T01:12:22.807Z,3.00
2017-11-07T01:14:50.474Z,3.20
2017-11-07T01:24:21.927Z,2.87
2017-11-07T01:26:53.543Z,2.80
2017-11-07T01:29:21.422Z,2.97
2017-11-07T01:31:49.139Z,2.83
2017-11-07T01:34:16.811Z,2.60
2017-11-07T01:36:57.724Z,3.03
2017-11-07T01:39:25.462Z,3.00
2017-11-07T01:41:53.795Z,3.30
2017-11-07T01:44:21.775Z,3.20
2017-11-07T01:46:50.496Z,3.03
2017-11-07T01:49:18.797Z,3.30
2017-11-07T01:51:46.662Z,3.10
2017-11-07T01:54:14.735Z,2.90
2017-11-07T01:56:43.508Z,3.08
2017-11-07T01:59:11.521Z,2.90
2017-11-07T02:01:39.380Z,3.05
2017-11-07T02:04:07.195Z,2.97
2017-11-07T02:06:35.875Z,3.22
2017-11-07T02:09:03.889Z,3.15
2017-11-07T02:11:31.823Z,3.30
2017-11-07T02:14:00.102Z,2.97
2017-11-07T02:16:28.995Z,3.60
2017-11-07T02:18:56.990Z,3.00
2017-11-07T02:21:24.863Z,2.92
2017-11-07T02:23:59.452Z,2.80
2017-11-07T02:26:27.544Z,3.15
2017-11-07T02:28:56.249Z,3.00
2017-11-07T02:31:27.060Z,3.20
2017-11-07T02:33:55.610Z,2.80
2017-11-07T02:36:23.680Z,3.25
2017-11-07T02:38:51.521Z,2.70
2017-11-07T02:41:21.207Z,2.90
2017-11-07T02:43:49.680Z,2.90
2017-11-07T02:46:17.499Z,3.00
2017-11-07T02:48:46.083Z,3.50
2017-11-07T02:51:14.615Z,2.80
2017-11-07T02:53:42.370Z,2.50
2017-11-07T02:56:12.675Z,2.78
2017-11-07T02:58:41.695Z,2.60
2017-11-07T03:01:09.926Z,2.60
2017-11-07T03:03:38.545Z,2.70
2017-11-07T03:06:06.377Z,2.62
2017-11-07T03:08:35.068Z,2.60
2017-11-07T03:11:02.985Z,2.70
2017-11-07T03:13:30.894Z,2.50
2017-11-07T03:15:58.814Z,2.70
2017-11-07T03:18:26.736Z,3.20
2017-11-07T03:20:55.104Z,2.45
2017-11-07T03:23:23.061Z,2.60
2017-11-07T03:25:50.920Z,2.80
2017-11-07T03:28:20.350Z,2.40
2017-11-07T03:30:48.210Z,2.50
2017-11-07T03:33:16.059Z,2.53
2017-11-07T03:35:43.845Z,2.58
2017-11-07T03:38:12.566Z,2.70
2017-11-07T03:40:40.651Z,2.30
2017-11-07T03:43:11.025Z,2.40
2017-11-07T03:45:42.390Z,2.72
2017-11-07T03:48:12.028Z,2.97
2017-11-07T03:50:39.767Z,2.60
2017-11-07T03:53:07.915Z,2.50
2017-11-07T03:55:35.645Z,2.70
2017-11-07T03:58:03.771Z,2.50
2017-11-07T04:00:32.860Z,2.50
2017-11-07T04:03:00.616Z,2.42
2017-11-07T04:05:28.412Z,2.75
2017-11-07T04:07:56.427Z,3.20
2017-11-07T04:10:24.396Z,2.15
2017-11-07T04:12:52.164Z,2.20
2017-11-07T04:15:20.853Z,2.47
2017-11-07T04:17:49.354Z,2.67
2017-11-07T04:20:17.113Z,2.47
2017-11-07T04:22:45.631Z,2.30
2017-11-07T04:25:13.430Z,2.47
2017-11-07T04:27:41.915Z,2.35
2017-11-07T04:30:10.300Z,2.47
2017-11-07T04:32:38.056Z,2.65
2017-11-07T04:35:05.901Z,2.50
2017-11-07T04:37:33.752Z,2.60
2017-11-07T04:40:01.865Z,2.25
2017-11-07T04:42:29.691Z,2.50
2017-11-07T04:44:58.243Z,2.42
2017-11-07T04:47:26.121Z,2.50
2017-11-07T04:49:54.721Z,2.58
2017-11-07T04:52:22.441Z,2.50
2017-11-07T04:54:50.188Z,2.58
2017-11-07T04:57:18.471Z,2.20
2017-11-07T04:59:46.229Z,2.30
2017-11-07T05:02:14.000Z,2.60
2017-11-07T05:04:41.761Z,2.55
2017-11-07T05:07:09.485Z,2.20
2017-11-07T05:09:37.183Z,2.35
2017-11-07T05:12:04.911Z,2.50
2017-11-07T05:14:32.602Z,2.30
2017-11-07T05:17:00.531Z,2.53
2017-11-07T05:19:28.237Z,2.50
2017-11-07T05:21:56.019Z,2.40
2017-11-07T05:24:23.725Z,2.50
2017-11-07T05:26:52.214Z,2.70
2017-11-07T05:29:19.928Z,2.70
2017-11-07T05:31:47.643Z,2.40
2017-11-07T05:34:15.375Z,2.85
2017-11-07T05:36:43.136Z,2.80
2017-11-07T05:39:10.993Z,2.55
2017-11-07T05:41:38.695Z,2.70
2017-11-07T05:44:06.405Z,2.60
2017-11-07T05:46:34.299Z,2.42
2017-11-07T05:49:02.121Z,2.60
2017-11-07T05:51:29.929Z,2.80
2017-11-07T05:53:58.488Z,2.70
2017-11-07T05:56:26.403Z,2.65
2017-11-07T05:58:54.988Z,2.90
2017-11-07T06:01:22.759Z,2.87
2017-11-07T06:03:50.523Z,2.75
2017-11-07T06:06:18.704Z,2.78
2017-11-07T06:08:49.434Z,2.95
2017-11-07T06:14:02.376Z,2.70
2017-11-07T06:16:30.837Z,3.03
2017-11-07T06:18:58.514Z,3.05
2017-11-07T06:21:26.168Z,2.72
2017-11-07T06:23:53.784Z,2.80
2017-11-07T06:26:21.516Z,2.92
2017-11-07T06:28:50.061Z,2.45
2017-11-07T06:31:17.687Z,2.65
2017-11-07T06:33:47.776Z,3.08
2017-11-07T06:36:15.428Z,2.95
2017-11-07T06:38:43.036Z,3.15
2017-11-07T06:41:10.693Z,2.90
2017-11-07T06:43:38.301Z,3.25
2017-11-07T06:46:05.957Z,2.60
2017-11-07T06:48:33.571Z,2.80
2017-11-07T06:51:01.178Z,2.72
2017-11-07T06:53:29.102Z,2.83
2017-11-07T06:55:57.737Z,2.83
2017-11-07T06:58:26.159Z,2.90
2017-11-07T07:00:53.794Z,3.00
2017-11-07T07:03:22.198Z,2.90
2017-11-07T07:05:50.762Z,2.85
2017-11-07T07:08:19.184Z,2.87
2017-11-07T07:10:46.792Z,2.67
2017-11-07T07:13:14.446Z,2.70
2017-11-07T07:15:42.878Z,2.70
2017-11-07T07:18:10.537Z,2.83
2017-11-07T07:20:38.159Z,3.07
2017-11-07T07:23:05.806Z,3.15
2017-11-07T07:25:33.403Z,2.85
2017-11-07T07:28:00.987Z,2.83
2017-11-07T07:30:29.388Z,2.67
2017-11-07T07:32:56.994Z,2.67
2017-11-07T07:35:24.690Z,2.87
2017-11-07T07:37:53.070Z,2.95
2017-11-07T07:40:21.496Z,3.00
2017-11-07T07:42:49.113Z,3.08
2017-11-07T07:45:16.726Z,3.12
2017-11-07T07:47:44.342Z,2.83
2017-11-07T07:50:11.978Z,2.72
2017-11-07T07:52:39.567Z,2.42
2017-11-07T07:55:07.225Z,2.60
2017-11-07T07:57:34.837Z,2.70
2017-11-07T08:00:03.261Z,2.60
2017-11-07T08:02:30.878Z,3.10
2017-11-07T08:04:59.274Z,2.67
2017-11-07T08:07:27.631Z,2.55
2017-11-07T08:09:56.156Z,2.35
2017-11-07T08:12:23.790Z,2.47
2017-11-07T08:14:51.431Z,2.40
2017-11-07T08:17:19.078Z,2.62
2017-11-07T08:19:46.678Z,2.50
2017-11-07T08:22:15.104Z,2.50
2017-11-07T08:24:42.714Z,2.17
2017-11-07T08:27:10.341Z,2.10
2017-11-07T08:29:37.958Z,2.58
2017-11-07T08:32:05.594Z,2.60
2017-11-07T08:34:33.211Z,2.47
2017-11-07T08:37:01.118Z,2.30
2017-11-07T08:39:28.789Z,2.12
2017-11-07T08:41:56.576Z,2.50
2017-11-07T08:44:24.201Z,2.62
2017-11-07T08:46:52.078Z,2.15
2017-11-07T08:49:19.705Z,2.30
2017-11-07T08:51:47.393Z,2.42
2017-11-07T08:54:16.512Z,2.25
2017-11-07T08:56:44.155Z,2.25
2017-11-07T08:59:12.528Z,2.30
2017-11-07T09:01:40.170Z,2.42
2017-11-07T09:04:07.937Z,2.10
2017-11-07T09:06:35.527Z,2.28
2017-11-07T09:09:03.289Z,2.20
2017-11-07T09:11:30.901Z,2.03
2017-11-07T09:13:59.295Z,2.13
2017-11-07T09:16:26.919Z,2.03
2017-11-07T09:18:55.331Z,2.12
2017-11-07T09:21:23.729Z,2.37
2017-11-07T09:23:51.370Z,2.00
2017-11-07T09:26:19.743Z,1.73
2017-11-07T09:28:48.437Z,1.87
2017-11-07T09:31:16.030Z,1.87
2017-11-07T09:33:43.680Z,1.92
2017-11-07T09:36:12.039Z,1.77
2017-11-07T09:38:40.485Z,1.60
2017-11-07T09:41:08.099Z,1.95
2017-11-07T09:43:36.482Z,1.77
2017-11-07T09:46:04.950Z,1.40
2017-11-07T09:48:32.546Z,2.30
2017-11-07T09:51:00.961Z,2.00
2017-11-07T09:53:28.582Z,1.77
2017-11-07T09:55:56.982Z,1.70
2017-11-07T09:58:24.691Z,1.67
2017-11-07T10:00:52.342Z,1.60
2017-11-07T10:03:19.968Z,1.75
2017-11-07T10:05:48.384Z,1.83
2017-11-07T10:08:16.038Z,1.48
2017-11-07T10:10:43.668Z,1.65
2017-11-07T10:13:11.276Z,1.52
2017-11-07T10:15:39.248Z,1.60
2017-11-07T10:18:07.647Z,1.50
2017-11-07T10:20:35.248Z,1.40
2017-11-07T10:23:02.893Z,2.23
2017-11-07T10:25:30.505Z,1.55
2017-11-07T10:27:58.155Z,1.20
2017-11-07T10:30:26.363Z,1.30
2017-11-07T10:32:54.765Z,1.50
2017-11-07T10:35:22.386Z,1.50
2017-11-07T10:37:50.034Z,1.20
2017-11-07T10:40:17.639Z,1.25
2017-11-07T10:42:46.219Z,1.27
2017-11-07T10:45:14.605Z,1.30
2017-11-07T10:47:43.007Z,1.40
2017-11-07T10:50:11.386Z,1.33
2017-11-07T10:52:39.833Z,1.48
2017-11-07T10:55:07.427Z,1.00
2017-11-07T10:57:35.812Z,1.30
2017-11-07T11:00:04.209Z,1.45
2017-11-07T11:02:31.805Z,1.35
2017-11-07T11:04:59.454Z,1.30
2017-11-07T11:07:27.077Z,1.47
2017-11-07T11:09:55.091Z,1.27
2017-11-07T11:12:22.699Z,1.30
2017-11-07T11:14:50.357Z,1.30
2017-11-07T11:17:17.966Z,1.20
2017-11-07T11:19:46.352Z,1.37
2017-11-07T11:22:13.991Z,1.20
2017-11-07T11:24:41.634Z,1.00
2017-11-07T11:27:09.240Z,1.30
2017-11-07T11:29:37.151Z,1.20
2017-11-07T11:32:04.788Z,1.20
2017-11-07T11:34:33.184Z,1.17
2017-11-07T11:37:01.905Z,1.10
2017-11-07T11:39:29.552Z,1.30
2017-11-07T11:41:57.200Z,1.20
2017-11-07T11:44:25.607Z,1.20
2017-11-07T11:46:53.269Z,1.40
2017-11-07T11:49:20.878Z,1.55
2017-11-07T11:51:48.506Z,1.10
2017-11-07T11:54:16.119Z,1.08
2017-11-07T11:56:43.780Z,1.00
2017-11-07T11:59:11.402Z,1.12
2017-11-07T12:01:39.292Z,1.20
2017-11-07T12:04:06.896Z,1.30
2017-11-07T12:06:35.297Z,1.23
2017-11-07T12:09:03.694Z,1.00
2017-11-07T12:11:32.086Z,1.08
2017-11-07T12:13:59.695Z,1.10
2017-11-07T12:16:27.311Z,1.08
2017-11-07T12:18:55.208Z,1.20
2017-11-07T12:21:22.815Z,1.10
2017-11-07T12:23:50.465Z,1.17
2017-11-07T12:26:18.085Z,0.93
2017-11-07T12:28:45.706Z,1.10
2017-11-07T12:31:13.303Z,1.05
2017-11-07T12:33:41.715Z,1.05
2017-11-07T12:36:09.432Z,0.93
2017-11-07T12:38:37.086Z,1.12
2017-11-07T12:41:04.720Z,0.93
2017-11-07T12:43:32.374Z,1.10
2017-11-07T12:46:00.001Z,1.00
2017-11-07T12:48:27.667Z,1.10
2017-11-07T12:51:07.029Z,1.02
2017-11-07T12:53:34.673Z,1.10
2017-11-07T12:56:03.050Z,1.30
2017-11-07T12:58:30.692Z,1.30
2017-11-07T13:00:58.286Z,1.40
2017-11-07T13:03:25.929Z,1.27
2017-11-07T13:05:53.611Z,1.33
2017-11-07T13:08:21.242Z,1.37
2017-11-07T13:10:48.958Z,1.15
2017-11-07T13:13:16.604Z,1.40
2017-11-07T13:15:44.196Z,1.43
2017-11-07T13:18:13.540Z,1.30
2017-11-07T13:20:41.152Z,1.50
2017-11-07T13:23:08.770Z,1.30
2017-11-07T13:25:36.701Z,1.50
2017-11-07T13:28:05.064Z,1.48
2017-11-07T13:30:32.720Z,1.60
2017-11-07T13:33:00.340Z,1.40
2017-11-07T13:35:28.796Z,1.37
2017-11-07T13:37:56.429Z,1.50
2017-11-07T13:40:24.075Z,1.30
2017-11-07T13:42:51.701Z,1.40
2017-11-07T13:45:20.121Z,1.60
2017-11-07T13:47:47.723Z,1.40
2017-11-07T13:50:15.626Z,1.50
2017-11-07T13:52:43.226Z,1.67
2017-11-07T13:55:10.930Z,1.60
2017-11-07T13:57:38.561Z,1.57
2017-11-07T14:00:07.145Z,1.90
2017-11-07T14:02:34.747Z,1.48
2017-11-07T14:05:02.374Z,1.70
2017-11-07T14:07:29.996Z,1.52
2017-11-07T14:09:57.645Z,1.48
2017-11-07T14:12:25.238Z,1.60
2017-11-07T14:14:53.623Z,1.67
2017-11-07T14:17:22.029Z,1.40
2017-11-07T14:19:49.683Z,1.33
2017-11-07T14:22:18.084Z,1.50
2017-11-07T14:24:45.724Z,1.52
2017-11-07T14:27:14.374Z,1.62
2017-11-07T14:29:41.965Z,1.60
2017-11-07T14:32:10.399Z,1.52
2017-11-07T14:34:38.012Z,1.58
2017-11-07T14:37:06.453Z,1.50
2017-11-07T14:39:34.057Z,1.70
2017-11-07T14:42:01.702Z,1.50
2017-11-07T14:44:29.562Z,1.62
2017-11-07T14:46:57.468Z,1.97
2017-11-07T14:49:25.087Z,1.70
2017-11-07T14:51:52.746Z,1.70
2017-11-07T14:54:20.387Z,2.00
2017-11-07T14:56:47.992Z,1.60
2017-11-07T14:59:15.640Z,1.77
2017-11-07T15:01:43.242Z,1.90
2017-11-07T15:04:10.908Z,1.50
2017-11-07T15:06:38.511Z,1.85
2017-11-07T15:09:06.161Z,1.87
2017-11-07T15:11:33.774Z,1.40
2017-11-07T15:14:01.428Z,1.83
2017-11-07T15:16:29.046Z,1.60
2017-11-07T15:18:56.674Z,1.92
2017-11-07T15:21:24.350Z,1.70
2017-11-07T15:23:52.033Z,1.60
2017-11-07T15:26:19.683Z,1.80
2017-11-07T15:28:47.328Z,1.80
2017-11-07T15:31:14.950Z,1.60
2017-11-07T15:33:43.725Z,1.50
2017-11-07T15:36:11.353Z,1.70
2017-11-07T15:38:39.004Z,1.70
2017-11-07T15:41:06.650Z,1.90
2017-11-07T15:43:35.096Z,1.80
2017-11-07T15:46:03.017Z,1.60
2017-11-07T15:48:32.512Z,2.17
2017-11-07T15:51:00.346Z,2.10
2017-11-07T15:53:29.995Z,1.98
2017-11-07T15:56:00.895Z,1.75
2017-11-07T15:58:28.512Z,1.67
2017-11-07T16:00:59.280Z,2.00
2017-11-07T16:03:27.645Z,1.73
2017-11-07T16:05:55.306Z,1.90
2017-11-07T16:08:23.188Z,1.80
2017-11-07T16:10:51.203Z,1.80
2017-11-07T16:13:18.798Z,1.87
2017-11-07T16:15:47.192Z,1.60
2017-11-07T16:18:15.911Z,1.90
2017-11-07T16:20:43.541Z,1.50
2017-11-07T16:23:11.194Z,1.65
2017-11-07T16:25:38.829Z,1.90
2017-11-07T16:28:06.479Z,1.83
2017-11-07T16:30:34.985Z,1.60
2017-11-07T16:33:02.651Z,1.75
2017-11-07T16:35:30.321Z,1.87
2017-11-07T16:37:57.977Z,1.83
2017-11-07T16:40:25.614Z,1.80
2017-11-07T16:42:53.484Z,2.10
2017-11-07T16:45:21.962Z,2.08
2017-11-07T16:47:50.440Z,1.80
2017-11-07T16:50:18.065Z,1.80
2017-11-07T16:52:45.751Z,1.90
2017-11-07T16:55:13.373Z,1.87
2017-11-07T16:57:41.036Z,1.80
2017-11-07T17:00:08.682Z,1.98
2017-11-07T17:02:37.044Z,1.63
2017-11-07T17:05:04.692Z,1.92
2017-11-07T17:07:32.330Z,1.90
2017-11-07T17:10:00.214Z,1.95
2017-11-07T17:12:27.823Z,2.25
2017-11-07T17:14:55.475Z,2.10
2017-11-07T17:17:23.095Z,2.28
2017-11-07T17:19:50.718Z,2.37
2017-11-07T17:22:18.343Z,2.45
2017-11-07T17:24:46.083Z,2.25
2017-11-07T17:27:13.703Z,1.95
2017-11-07T17:29:41.347Z,2.37
2017-11-07T17:32:08.962Z,1.83
2017-11-07T17:34:36.598Z,2.12
2017-11-07T17:37:05.161Z,2.22
2017-11-07T17:39:32.823Z,2.22
2017-11-07T17:42:00.440Z,2.10
2017-11-07T17:44:28.091Z,2.17
2017-11-07T17:46:56.772Z,2.40
2017-11-07T17:49:24.462Z,2.45
2017-11-07T17:51:52.125Z,2.30
2017-11-07T17:54:19.745Z,2.53
2017-11-07T17:56:47.559Z,2.37
2017-11-07T17:59:15.170Z,2.72
2017-11-07T18:01:42.843Z,2.65
2017-11-07T18:04:10.445Z,2.67
2017-11-07T18:06:38.134Z,2.87
2017-11-07T18:09:05.811Z,2.60
2017-11-07T18:11:34.512Z,3.00
2017-11-07T18:14:02.890Z,2.72
2017-11-07T18:16:31.442Z,2.80
2017-11-07T18:18:59.110Z,3.30
2017-11-07T18:21:26.747Z,3.17
2017-11-07T18:23:54.386Z,3.03
2017-11-07T18:26:21.990Z,2.85
2017-11-07T18:28:49.795Z,3.07
2017-11-07T18:31:17.412Z,3.05
2017-11-07T18:33:45.842Z,3.12
2017-11-07T18:36:13.539Z,3.70
2017-11-07T18:38:42.225Z,3.58
2017-11-07T18:41:09.825Z,3.50
2017-11-07T18:43:37.535Z,3.40
2017-11-07T18:46:05.924Z,3.10
2017-11-07T18:48:34.334Z,3.97
2017-11-07T18:51:01.952Z,3.97
2017-11-07T18:53:30.078Z,4.12
2017-11-07T18:55:57.701Z,4.35
2017-11-07T18:58:25.949Z,4.20
2017-11-07T19:00:55.423Z,4.05
2017-11-07T19:03:23.035Z,4.50
2017-11-07T19:05:51.680Z,4.53
2017-11-07T19:08:20.053Z,4.07
2017-11-07T19:10:48.469Z,4.97
2017-11-07T19:13:16.890Z,5.18
2017-11-07T19:15:44.566Z,5.37
2017-11-07T19:18:12.354Z,5.15
2017-11-07T19:20:40.758Z,5.28
2017-11-07T19:23:08.405Z,5.15
2017-11-07T19:25:37.081Z,5.60
2017-11-07T19:28:04.772Z,5.77
2017-11-07T19:30:32.484Z,5.90
2017-11-07T19:33:00.161Z,6.37
2017-11-07T19:35:28.602Z,6.05
2017-11-07T19:37:56.210Z,6.30
2017-11-07T19:40:23.872Z,6.85
2017-11-07T19:42:51.534Z,6.37
2017-11-07T19:45:19.155Z,6.05
2017-11-07T19:47:46.895Z,5.97
2017-11-07T19:50:14.513Z,6.60
2017-11-07T19:52:42.166Z,6.55
2017-11-07T19:55:09.781Z,6.65
2017-11-07T19:57:37.434Z,6.78
2017-11-07T20:00:05.050Z,7.20
2017-11-07T20:02:32.765Z,7.18
2017-11-07T20:05:00.405Z,7.00
2017-11-07T20:07:28.803Z,7.70
2017-11-07T20:09:57.194Z,6.97
2017-11-07T20:12:24.833Z,7.03
2017-11-07T20:14:52.436Z,6.87
2017-11-07T20:17:20.307Z,7.40
2017-11-07T20:19:47.938Z,7.20
2017-11-07T20:22:15.579Z,7.47
2017-11-07T20:24:44.309Z,7.22
2017-11-07T20:27:12.719Z,7.55
2017-11-07T20:29:40.321Z,7.15
2017-11-07T20:32:09.654Z,7.65
2017-11-07T20:34:38.047Z,6.95
2017-11-07T20:37:07.458Z,7.03
2017-11-07T20:39:35.862Z,7.60
2017-11-07T20:42:03.476Z,7.30
2017-11-07T20:44:31.107Z,7.90
2017-11-07T20:46:58.735Z,7.35
2017-11-07T20:49:27.153Z,7.47
2017-11-07T20:51:54.760Z,7.78
2017-11-07T20:54:22.422Z,8.05
2017-11-07T20:56:50.037Z,8.02
2017-11-07T20:59:17.703Z,8.10
2017-11-07T21:01:45.324Z,8.88
2017-11-07T21:04:12.985Z,8.30
2017-11-07T21:06:40.582Z,8.02
2017-11-07T21:09:08.963Z,8.60
2017-11-07T21:11:37.373Z,8.87
2017-11-07T21:14:04.981Z,8.60
2017-11-07T21:16:32.627Z,8.55
2017-11-07T21:19:00.243Z,8.50
2017-11-07T21:21:27.907Z,8.82
2017-11-07T21:23:55.530Z,8.77
2017-11-07T21:26:23.149Z,8.77
2017-11-07T21:28:51.519Z,8.55
2017-11-07T21:31:19.922Z,8.83
2017-11-07T21:33:48.302Z,8.57
2017-11-07T21:36:16.700Z,8.95
2017-11-07T21:38:44.334Z,8.88
2017-11-07T21:41:12.067Z,8.33
2017-11-07T21:43:40.467Z,8.75
2017-11-07T21:46:08.302Z,8.80
2017-11-07T21:48:35.930Z,9.45
2017-11-07T21:51:04.294Z,8.80
2017-11-07T21:53:31.927Z,8.75
2017-11-07T21:55:59.527Z,9.02
2017-11-07T21:58:27.169Z,8.88
2017-11-07T22:00:54.794Z,9.07
2017-11-07T22:03:23.199Z,8.93
2017-11-07T22:05:50.808Z,9.02
2017-11-07T22:08:19.087Z,8.73
2017-11-07T22:10:46.734Z,8.70
2017-11-07T22:13:14.356Z,9.10
2017-11-07T22:15:41.976Z,9.05
2017-11-07T22:18:10.483Z,9.13
2017-11-07T22:20:40.088Z,9.40
2017-11-07T22:23:13.392Z,9.27
2017-11-07T22:25:43.589Z,9.07
2017-11-07T22:28:12.157Z,9.63
2017-11-07T22:30:39.941Z,9.63
2017-11-07T22:33:07.555Z,8.90
2017-11-07T22:35:35.980Z,9.32
2017-11-07T22:38:03.614Z,9.10
2017-11-07T22:40:31.314Z,9.27
2017-11-07T22:42:58.982Z,9.10
2017-11-07T22:45:26.626Z,10.00
2017-11-07T22:47:54.249Z,9.93
2017-11-07T22:50:21.890Z,9.57
2017-11-07T22:52:49.522Z,9.82
2017-11-07T22:55:17.320Z,9.50
2017-11-07T22:57:44.927Z,9.18
2017-11-07T23:00:12.936Z,9.55
2017-11-07T23:02:40.560Z,9.35
2017-11-07T23:05:08.185Z,10.23
2017-11-07T23:07:36.982Z,10.20
2017-11-07T23:10:04.599Z,9.57
2017-11-07T23:12:32.991Z,10.18
2017-11-07T23:15:01.356Z,9.80
2017-11-07T23:17:29.148Z,10.35
2017-11-07T23:19:57.517Z,9.77
2017-11-07T23:22:26.093Z,11.10
2017-11-07T23:24:53.689Z,9.68
2017-11-07T23:27:21.339Z,10.13
2017-11-07T23:29:49.722Z,9.80
2017-11-07T23:32:18.126Z,9.63
2017-11-07T23:34:45.750Z,9.48
2017-11-07T23:37:13.390Z,10.35
2017-11-07T23:39:41.011Z,8.98
2017-11-07T23:42:09.470Z,10.00
2017-11-07T23:44:37.079Z,9.70
2017-11-07T23:47:04.736Z,10.23
2017-11-07T23:49:32.549Z,10.57
2017-11-07T23:52:00.167Z,10.48
2017-11-07T23:54:28.569Z,9.97
2017-11-07T23:56:56.185Z,10.57
2017-11-07T23:59:23.838Z,10.23
